Home > Products > Valid Products > TAF

000
FTUS42 KFFC 250144 AAA
TAFATL
TAF AMD
KATL 250144Z 2502/2606 21003KT P6SM FEW250
     FM251500 24006KT P6SM FEW060 SCT250
     FM251700 21008KT P6SM SCT070 BKN250
     FM260000 19005KT P6SM FEW080 BKN250=



000
FTUS42 KFFC 242320
TAFFTY
TAF
KFTY 242320Z 2500/2524 VRB03KT P6SM FEW080
     FM251500 24005KT P6SM FEW060 SCT250
     FM251700 21007KT P6SM SCT070 BKN250=



000
FTUS42 KFFC 242320
TAFAHN
TAF
KAHN 242320Z 2500/2524 VRB03KT P6SM FEW080
     FM251500 25005KT P6SM FEW050
     FM251700 22007KT P6SM FEW060=



000
FTUS42 KFFC 242320
TAFATL
TAF
KATL 242320Z 2500/2606 19006KT P6SM FEW080
     FM250200 19003KT P6SM FEW250
     FM251500 24006KT P6SM FEW060 SCT250
     FM251700 21008KT P6SM SCT070 BKN250
     FM260000 19005KT P6SM FEW080 BKN250=



000
FTUS42 KFFC 242320
TAFRYY
TAF
KRYY 242320Z 2500/2524 VRB03KT P6SM FEW080
     FM251500 24005KT P6SM FEW060 SCT250
     FM251700 21007KT P6SM SCT070 BKN250
      AMD NOT SKED 2504/2512=



000
FTUS42 KFFC 242320
TAFCSG
TAF
KCSG 242320Z 2500/2524 21003KT P6SM FEW080
     FM251500 24005KT P6SM FEW050
     FM251700 21007KT P6SM SCT060=



000
FTUS42 KFFC 242320
TAFPDK
TAF
KPDK 242320Z 2500/2524 VRB03KT P6SM FEW080
     FM251500 24005KT P6SM FEW060 SCT250
     FM251700 21007KT P6SM SCT070 BKN250=



000
FTUS42 KFFC 242320
TAFMCN
TAF
KMCN 242320Z 2500/2524 21003KT P6SM FEW080
     FM251500 24005KT P6SM FEW050
     FM251700 21007KT P6SM SCT060=



000
FTUS42 KFFC 241939 AAA
TAFRYY
TAF AMD
KRYY 241939Z 2420/2518 28006KT P6SM SCT070
     FM250000 23003KT P6SM FEW250
     FM251500 25005KT P6SM FEW050
     FM251700 22007KT P6SM SCT060=



000
FTUS42 KFFC 241937 AAA
TAFFTY
TAF AMD
KFTY 241937Z 2420/2518 28007KT P6SM FEW070
     FM250000 23003KT P6SM FEW250
     FM251500 25005KT P6SM FEW050
     FM251700 22008KT P6SM SCT060=



000
FTUS42 KFFC 241503 AAC
TAFATL
TAF AMD
KATL 241503Z 2415/2518 VRB03KT P6SM FEW250
     FM241600 28005KT P6SM SCT250
     FM241800 25007KT P6SM FEW050
     FM250000 22004KT P6SM FEW250
     FM251500 21005KT P6SM FEW040=



000
FTUS42 KFFC 241231 AAA
TAFMCN
TAF AMD
KMCN 241231Z 2413/2512 04004KT P6SM BKN080
     FM241400 26004KT P6SM FEW080
     FM241800 22005KT P6SM FEW045
     FM250000 18003KT P6SM SKC=



000
FTUS42 KFFC 241227 AAA
TAFRYY
TAF AMD
KRYY 241227Z 2412/2512 04005KT P6SM BKN080
     FM241600 34004KT P6SM FEW080
     FM241800 29006KT P6SM FEW050
     FM250000 00000KT P6SM FEW240=



000
FTUS42 KFFC 241226 AAA
TAFPDK
TAF AMD
KPDK 241226Z 2412/2512 04005KT P6SM BKN080
     FM241600 33005KT P6SM FEW080
     FM241800 28005KT P6SM FEW050
     FM250000 24004KT P6SM FEW250=



000
FTUS42 KFFC 241157 AAA
TAFATL
TAF AMD
KATL 241157Z 2412/2518 04007KT P6SM BKN080
     FM241500 35006KT P6SM SCT080
     FM241700 28007KT P6SM FEW050
     FM250000 22004KT P6SM FEW250
     FM251500 21005KT P6SM FEW040=



000
FTUS42 KFFC 241157 AAA
TAFFTY
TAF AMD
KFTY 241157Z 2412/2512 06006KT P6SM BKN080
     FM241500 02005KT P6SM SCT080
     FM241700 31005KT P6SM SKC
     FM241900 27007KT P6SM FEW050
     FM242300 23004KT P6SM SKC=



000
FTUS42 KFFC 241121
TAFCSG
TAF
KCSG 241121Z 2412/2512 35003KT P6SM BKN080
     FM241400 20004KT P6SM SCT080
     FM241700 20005KT P6SM FEW050
     FM241900 21007KT P6SM FEW050
     FM250000 20004KT P6SM SKC=



000
FTUS42 KFFC 241121
TAFAHN
TAF
KAHN 241121Z 2412/2512 07005KT P6SM BKN080
     FM241500 34006KT P6SM SCT080
     FM241800 27005KT P6SM FEW050
     FM242300 22004KT P6SM SKC=



000
FTUS42 KFFC 241121
TAFPDK
TAF
KPDK 241121Z 2412/2512 03006KT P6SM FEW080
     FM241600 33005KT P6SM SKC
     FM241800 28005KT P6SM FEW050
     FM250000 24004KT P6SM FEW250=



000
FTUS42 KFFC 241121
TAFMCN
TAF
KMCN 241121Z 2412/2512 VRB03KT P6SM FEW080
     FM241400 26004KT P6SM SKC
     FM241800 22005KT P6SM FEW045
     FM250000 18003KT P6SM SKC=



000
FTUS42 KFFC 241121
TAFATL
TAF
KATL 241121Z 2412/2518 04007KT P6SM SCT080
     FM241500 35006KT P6SM FEW080
     FM241700 28007KT P6SM FEW050
     FM250000 22004KT P6SM FEW250
     FM251500 21005KT P6SM FEW040=



000
FTUS42 KFFC 241121
TAFFTY
TAF
KFTY 241121Z 2412/2512 06006KT P6SM FEW080
     FM241500 02005KT P6SM FEW080
     FM241700 31005KT P6SM SKC
     FM241900 27007KT P6SM FEW050
     FM242300 23004KT P6SM SKC=



000
FTUS42 KFFC 241121
TAFRYY
TAF
KRYY 241121Z 2412/2512 04005KT P6SM SKC
     FM241600 34004KT P6SM SKC
     FM241800 29006KT P6SM FEW050
     FM250000 00000KT P6SM FEW240=



000
FTUS42 KFFC 240932 AAB
TAFATL
TAF AMD
KATL 240932Z 2410/2512 06006KT P6SM FEW080
     FM241500 27007KT P6SM FEW050
     FM242300 23006KT P6SM FEW050
     FM250000 23004KT P6SM FEW250=



000
FTUS42 KFFC 240730 AAA
TAFATL
TAF AMD
KATL 240730Z 2408/2512 04003KT P6SM FEW080
     FM241500 27007KT P6SM FEW050
     FM242300 23006KT P6SM FEW050
     FM250000 23004KT P6SM FEW250=



000
FTUS42 KFFC 240330 AAB
TAFATL
TAF AMD
KATL 240330Z 2404/2506 28003KT P6SM SKC
     FM240900 04003KT P6SM SKC
     FM241500 27005KT P6SM FEW050
     FM241800 27008KT P6SM SCT070
     FM250200 22003KT P6SM FEW150=



000
FTUS42 KFFC 231956 AAA
TAFMCN
TAF AMD
KMCN 231956Z 2320/2418 35007KT P6SM BKN060
     FM232300 VRB03KT P6SM SCT070
     FM240100 VRB03KT P6SM SKC
     FM241500 25007KT P6SM FEW045=



000
FTUS42 KFFC 231559 AAA
TAFFTY
TAF AMD
KFTY 231559Z 2316/2412 35010G16KT P6SM FEW060
     FM232300 35005KT P6SM SKC
     FM240200 VRB03KT P6SM FEW250=



000
FTUS42 KFFC 231557 AAB
TAFATL
TAF AMD
KATL 231557Z 2316/2418 35010G18KT P6SM FEW060
     FM232300 35007KT P6SM SKC
     FM240400 03004KT P6SM SKC
     FM240600 15004KT P6SM SKC
     FM241500 27006KT P6SM FEW050=



000
FTUS42 KFFC 231357 AAA
TAFATL
TAF AMD
KATL 231357Z 2314/2418 35010KT P6SM SKC
     FM231600 35010G17KT P6SM FEW050
     FM232300 33006KT P6SM SKC
     FM240400 03004KT P6SM SKC
     FM240600 15004KT P6SM SKC
     FM241500 27006KT P6SM FEW050=



000
FTUS42 KFFC 231121
TAFATL
TAF
KATL 231121Z 2312/2418 33006KT P6SM SKC
     FM231600 33009G17KT P6SM FEW050
     FM232300 33006KT P6SM SKC
     FM240400 03004KT P6SM SKC
     FM240600 15004KT P6SM SKC
     FM241500 27006KT P6SM FEW050=



000
FTUS42 KFFC 231121
TAFPDK
TAF
KPDK 231121Z 2312/2412 33005KT P6SM SKC
     FM231600 33010G15KT P6SM FEW050
     FM232300 33005KT P6SM SKC
     FM240200 VRB03KT P6SM SKC=



000
FTUS42 KFFC 231121
TAFCSG
TAF
KCSG 231121Z 2312/2412 35005KT P6SM SKC
     FM231500 36010G15KT P6SM FEW050
     FM232300 33005KT P6SM SKC=



000
FTUS42 KFFC 231121
TAFAHN
TAF
KAHN 231121Z 2312/2412 32005KT P6SM FEW080
     FM231500 35008KT P6SM FEW050
     FM232300 VRB03KT P6SM SKC=



000
FTUS42 KFFC 231121
TAFRYY
TAF
KRYY 231121Z 2312/2412 33005KT P6SM SKC
     FM231600 33010G15KT P6SM FEW050
     FM232300 33005KT P6SM SKC
     FM240200 00000KT P6SM FEW200=



000
FTUS42 KFFC 231121
TAFFTY
TAF
KFTY 231121Z 2312/2412 34005KT P6SM SKC
     FM231600 33010G15KT P6SM FEW050
     FM232300 33005KT P6SM SKC
     FM240200 VRB03KT P6SM FEW250=



000
FTUS42 KFFC 231121
TAFMCN
TAF
KMCN 231121Z 2312/2412 28004KT P6SM SKC
     FM231500 35010G15KT P6SM FEW050
     FM232300 VRB03KT P6SM SKC=



000
FTUS42 KFFC 230730 AAA
TAFATL
TAF AMD
KATL 230730Z 2308/2412 33006KT P6SM SKC
     FM231600 33009G17KT P6SM FEW050
     FM232300 33006KT P6SM SKC
     FM240400 03004KT P6SM SKC
     FM240600 15004KT P6SM SKC=



000
FTUS42 KFFC 230526
TAFFTY
TAF
KFTY 230526Z 2306/2406 34005KT P6SM SKC
     FM231600 33010G15KT P6SM FEW050
     FM232300 33005KT P6SM SKC
     FM240200 VRB03KT P6SM FEW250=



000
FTUS42 KFFC 230526
TAFCSG
TAF
KCSG 230526Z 2306/2406 35005KT P6SM SKC
     FM231500 36010G15KT P6SM FEW050
     FM232300 33005KT P6SM SKC=



000
FTUS42 KFFC 230526
TAFRYY
TAF
KRYY 230526Z 2306/2406 33005KT P6SM SKC
     FM231600 33010G15KT P6SM FEW050
     FM232300 33005KT P6SM SKC
     FM240200 00000KT P6SM FEW200
      AMD NOT SKED TIL 231200=



000
FTUS42 KFFC 230526
TAFAHN
TAF
KAHN 230526Z 2306/2406 32005KT P6SM FEW080
     FM231500 35008KT P6SM FEW050
     FM232300 VRB03KT P6SM SKC=



000
FTUS42 KFFC 230526
TAFATL
TAF
KATL 230526Z 2306/2412 33005KT P6SM SKC
     FM231600 33009G17KT P6SM FEW050
     FM232300 33006KT P6SM SKC
     FM240400 03004KT P6SM SKC
     FM240600 15004KT P6SM SKC=



000
FTUS42 KFFC 230526
TAFPDK
TAF
KPDK 230526Z 2306/2406 33005KT P6SM SKC
     FM231600 33010G15KT P6SM FEW050
     FM232300 33005KT P6SM SKC
     FM240200 VRB03KT P6SM SKC=



000
FTUS42 KFFC 230526
TAFMCN
TAF
KMCN 230526Z 2306/2406 28004KT P6SM SKC
     FM231500 35010G15KT P6SM FEW050
     FM232300 VRB03KT P6SM SKC=



000
FTUS42 KFFC 230137 AAA
TAFCSG
TAF AMD
KCSG 230137Z 2302/2324 35005KT P6SM SKC
     FM231500 36010G15KT P6SM FEW050
     FM232300 33005KT P6SM SKC=



000
FTUS42 KFFC 230135 AAA
TAFAHN
TAF AMD
KAHN 230135Z 2302/2324 32005KT P6SM FEW080
     FM231500 35008KT P6SM FEW050
     FM232300 VRB03KT P6SM SKC=



000
FTUS42 KFFC 230134 AAA
TAFRYY
TAF AMD
KRYY 230134Z 2302/2324 33005KT P6SM SKC
     FM231600 33010G15KT P6SM FEW050
     FM232300 33005KT P6SM SKC
      AMD NOT SKED 2304/2312=



000
FTUS42 KFFC 230133 AAA
TAFATL
TAF AMD
KATL 230133Z 2302/2406 33007KT P6SM SKC
     FM231600 33010G16KT P6SM FEW050
     FM232300 33006KT P6SM SKC=



000
FTUS42 KFFC 222152 AAA
TAFFTY
TAF AMD
KFTY 222152Z 2222/2318 32010G18KT P6SM FEW060
     FM230100 33004KT P6SM SKC
     FM231500 32010KT P6SM FEW050=



000
FTUS42 KFFC 222151 AAB
TAFATL
TAF AMD
KATL 222151Z 2222/2324 33010G18KT P6SM FEW060
     FM230100 32007KT P6SM SKC
     FM231400 33010KT P6SM SKC
     FM231700 34010G16KT P6SM FEW050=



000
FTUS42 KFFC 221359 AAA
TAFFTY
TAF AMD
KFTY 221359Z 2214/2312 34010G20KT P6SM SKC
     FM222000 33010KT P6SM SKC
     FM230200 32003KT P6SM SKC=



000
FTUS42 KFFC 221358 AAA
TAFATL
TAF AMD
KATL 221358Z 2214/2318 32012G22KT P6SM FEW035
     FM221600 35014G25KT P6SM SKC
     FM222100 33009G15KT P6SM SKC
     FM230300 32005KT P6SM SKC
     FM231400 33007KT P6SM SKC=



000
FTUS42 KFFC 221127
TAFAHN
TAF
KAHN 221127Z 2212/2312 33007KT P6SM SKC
     FM221500 36008G16KT P6SM FEW050
     FM222300 32007KT P6SM SKC
     FM230500 32003KT P6SM SKC=



000
FTUS42 KFFC 221127
TAFRYY
TAF
KRYY 221127Z 2212/2312 30006KT P6SM SCT025
     FM221300 34009KT P6SM SKC
     FM221500 35011G20KT P6SM SKC
     FM222300 33009KT P6SM SKC
     FM230200 33003KT P6SM SKC=



000
FTUS42 KFFC 221127
TAFMCN
TAF
KMCN 221127Z 2212/2312 27007KT P6SM FEW250
     FM221500 34009G15KT P6SM FEW050
     FM230000 32006KT P6SM SKC=



000
FTUS42 KFFC 221127
TAFPDK
TAF
KPDK 221127Z 2212/2312 33010KT P6SM SKC
     FM221500 35011G20KT P6SM SKC
     FM230000 32010KT P6SM SKC
     FM230300 32003KT P6SM SKC=



000
FTUS42 KFFC 221127
TAFATL
TAF
KATL 221127Z 2212/2318 32011G18KT P6SM SKC
     FM221500 35012G25KT P6SM SKC
     FM222100 33009G15KT P6SM SKC
     FM230300 32005KT P6SM SKC
     FM231400 33007KT P6SM SKC=



000
FTUS42 KFFC 221127
TAFCSG
TAF
KCSG 221127Z 2212/2312 31004KT P6SM SKC
     FM221400 34008G13KT P6SM SKC
     FM230200 33004KT P6SM SKC=



000
FTUS42 KFFC 221127
TAFFTY
TAF
KFTY 221127Z 2212/2312 34009KT P6SM SKC
     FM221500 35011G20KT P6SM SKC
     FM222000 33010KT P6SM SKC
     FM230200 32003KT P6SM SKC=



000
FTUS42 KFFC 220931 AAB
TAFATL
TAF AMD
KATL 220931Z 2210/2312 32010KT P6SM FEW025
     FM221300 34012KT P6SM SKC
     FM221500 35012G25KT P6SM SKC
     FM222100 33009G15KT P6SM SKC
     FM230300 32005KT P6SM SKC=



    US Dept of Commerce
    National Oceanic and Atmospheric Administration
    National Weather Service
    1325 East West Highway
    Silver Spring, MD 20910
    Page Author: NWS Internet Services Team
Disclaimer
Information Quality
Credits
Glossary
Privacy Policy
Freedom of Information Act (FOIA)
About Us
Career Opportunities